Time;durP1;ratioP1;P1;durP2;ratioP2;P2;SDS_P1;SDS_P2;PMS_P1;PMS_P2;Temp;Humidity;BMP_temperature;BMP_pressure;BME280_temperature;BME280_humidity;BME280_pressure;Samples;Min_cycle;Max_cycle;Signal;HPM_P1;HPM_P2
2022/08/21 00:02:13;;;;;;;6.63;3.50;;;;;;;;;;5051222;28;20028;-56
2022/08/21 00:04:39;;;;;;;5.32;3.78;;;;;;;;;;5052143;28;20032;-57
2022/08/21 00:07:05;;;;;;;4.93;3.63;;;;;;;;;;5050572;28;20035;-60
2022/08/21 00:09:32;;;;;;;4.03;3.63;;;;;;;;;;5051472;28;20029;-58
2022/08/21 00:11:58;;;;;;;8.07;3.58;;;;;;;;;;5051450;28;20047;-59
2022/08/21 00:14:24;;;;;;;5.03;4.37;;;;;;;;;;5051596;28;20570;-58
2022/08/21 00:16:50;;;;;;;8.75;4.32;;;;;;;;;;5052206;28;20414;-56
2022/08/21 00:19:16;;;;;;;4.28;3.75;;;;;;;;;;5051988;28;20029;-59
2022/08/21 00:21:42;;;;;;;6.47;4.07;;;;;;;;;;5051264;28;20086;-57
2022/08/21 00:24:08;;;;;;;3.72;3.35;;;;;;;;;;5051179;28;20487;-59
2022/08/21 00:26:34;;;;;;;3.80;3.40;;;;;;;;;;5051154;28;20568;-56
2022/08/21 00:29:00;;;;;;;7.10;4.22;;;;;;;;;;5051519;28;20051;-59
2022/08/21 00:31:26;;;;;;;4.47;4.00;;;;;;;;;;5051140;28;20064;-59
2022/08/21 00:33:53;;;;;;;4.03;3.73;;;;;;;;;;5051188;28;20036;-58
2022/08/21 00:36:19;;;;;;;4.68;4.28;;;;;;;;;;5051356;28;20036;-60
2022/08/21 00:38:45;;;;;;;9.20;3.93;;;;;;;;;;5050659;28;20029;-59
2022/08/21 00:41:11;;;;;;;6.40;4.13;;;;;;;;;;5041644;28;20525;-59
2022/08/21 00:43:38;;;;;;;7.03;4.03;;;;;;;;;;5051226;28;20048;-59
2022/08/21 00:46:05;;;;;;;3.90;3.47;;;;;;;;;;5051534;28;20033;-59
2022/08/21 00:48:31;;;;;;;;;;;;;;;;;;5051440;28;20029;-59
2022/08/21 00:50:59;;;;;;;7.63;3.45;;;;;;;;;;5050425;28;19970;-58
2022/08/21 00:53:25;;;;;;;5.45;3.45;;;;;;;;;;5050835;28;20044;-58
2022/08/21 00:55:52;;;;;;;4.38;3.65;;;;;;;;;;5050699;28;20052;-58
2022/08/21 00:58:18;;;;;;;;;;;;;;;;;;5051009;28;20033;-60
2022/08/21 01:00:49;;;;;;;4.80;4.13;;;24.90;81.40;;;;;;5051059;28;19932;-59
2022/08/21 01:03:17;;;;;;;4.97;3.80;;;;;;;;;;5050249;28;20060;-58
2022/08/21 01:05:44;;;;;;;5.07;4.47;;;;;;;;;;5050918;28;20446;-59
2022/08/21 01:08:10;;;;;;;5.50;4.25;;;;;;;;;;5050712;28;20017;-59
2022/08/21 01:10:37;;;;;;;5.70;4.13;;;;;;;;;;5050521;28;20028;-61
2022/08/21 01:13:06;;;;;;;5.45;3.60;;;;;;;;;;5050718;28;20039;-59
2022/08/21 01:15:34;;;;;;;4.47;3.88;;;;;;;;;;5038531;28;20025;-59
2022/08/21 01:18:00;;;;;;;6.65;4.55;;;;;;;;;;5050288;28;20103;-58
2022/08/21 01:20:26;;;;;;;4.93;4.43;;;;;;;;;;5050665;28;20025;-60
2022/08/21 01:22:52;;;;;;;4.45;4.05;;;;;;;;;;5051266;28;20025;-58
2022/08/21 01:25:22;;;;;;;5.50;4.10;;;;;;;;;;5049656;28;20431;-59
2022/08/21 01:27:48;;;;;;;6.57;4.43;;;;;;;;;;5050791;28;20259;-58
2022/08/21 01:30:17;;;;;;;8.77;4.07;;;;;;;;;;5050849;28;20020;-60
2022/08/21 01:32:43;;;;;;;5.45;4.10;;;;;;;;;;5049414;28;20017;-57
2022/08/21 01:35:11;;;;;;;6.40;4.47;;;;;;;;;;5050473;28;20036;-58
2022/08/21 01:37:37;;;;;;;5.75;4.85;;;;;;;;;;5050492;28;20158;-59
2022/08/21 01:40:04;;;;;;;5.53;4.60;;;;;;;;;;5049972;28;20135;-60
2022/08/21 01:42:30;;;;;;;;;;;;;;;;;;5050456;28;20033;-59
2022/08/21 01:44:56;;;;;;;6.60;4.47;;;;;;;;;;5050385;28;19921;-59
2022/08/21 01:47:22;;;;;;;5.25;4.72;;;;;;;;;;5050883;28;20029;-59
2022/08/21 01:49:48;;;;;;;10.13;5.15;;;;;;;;;;5049126;28;20080;-59
2022/08/21 01:52:14;;;;;;;9.63;4.60;;;;;;;;;;5050369;28;20039;-58
2022/08/21 01:54:41;;;;;;;5.70;5.10;;;;;;;;;;5050934;28;20028;-58
2022/08/21 01:57:08;;;;;;;5.97;5.35;;;;;;;;;;5049514;28;20697;-59
2022/08/21 01:59:34;;;;;;;8.48;5.82;;;;;;;;;;5049984;28;20035;-59
2022/08/21 02:02:00;;;;;;;6.13;5.53;;;;;;;;;;5049986;28;20029;-59
2022/08/21 02:04:26;;;;;;;8.70;5.30;;;;;;;;;;5050079;28;20390;-58
2022/08/21 02:06:52;;;;;;;9.63;5.03;;;;;;;;;;5050667;28;20447;-59
2022/08/21 02:09:19;;;;;;;6.07;4.63;;;;;;;;;;5050597;28;20745;-58
2022/08/21 02:11:45;;;;;;;8.05;5.07;;;;;;;;;;5050252;28;20522;-58
2022/08/21 02:14:14;;;;;;;8.02;5.10;;;;;;;;;;5050223;28;20025;-57
2022/08/21 02:16:40;;;;;;;7.60;5.75;;;;;;;;;;5050419;28;20490;-58
2022/08/21 02:19:06;;;;;;;6.53;5.50;;;;;;;;;;5050134;28;20029;-59
2022/08/21 02:21:32;;;;;;;6.70;5.27;;;;;;;;;;5049331;28;20040;-58
2022/08/21 02:23:58;;;;;;;5.60;5.00;;;;;;;;;;5049994;28;20064;-58
2022/08/21 02:26:24;;;;;;;6.03;5.37;;;;;;;;;;5050208;28;20283;-58
2022/08/21 02:28:50;;;;;;;6.50;4.93;;;;;;;;;;5052570;28;20116;-60
2022/08/21 02:31:16;;;;;;;5.10;4.60;;;;;;;;;;5053749;28;20025;-59
2022/08/21 02:33:42;;;;;;;5.43;4.53;;;;;;;;;;5053308;28;20256;-59
2022/08/21 02:36:10;;;;;;;6.67;4.57;;;;;;;;;;5053564;28;20036;-59
2022/08/21 02:38:39;;;;;;;6.90;4.50;;;;;;;;;;5053488;28;20159;-59
2022/08/21 02:41:07;;;;;;;7.70;5.50;;;;;;;;;;5053078;28;20507;-57
2022/08/21 02:43:33;;;;;;;8.18;4.90;;;;;;;;;;5046460;28;20026;-59
2022/08/21 02:46:00;;;;;;;9.73;5.07;;;;;;;;;;5052955;28;20391;-58
2022/08/21 02:48:27;;;;;;;9.60;5.95;;;;;;;;;;5053606;28;20033;-58
2022/08/21 02:50:59;;;;;;;9.70;5.22;;;;;;;;;;5051420;28;20025;-59
2022/08/21 02:53:26;;;;;;;7.35;6.00;;;;;;;;;;5052140;28;20501;-58
2022/08/21 02:55:52;;;;;;;7.18;5.68;;;;;;;;;;5053368;28;20053;-59
2022/08/21 02:58:22;;;;;;;9.73;5.60;;;;;;;;;;5053368;28;20040;-60
2022/08/21 03:00:48;;;;;;;8.85;6.22;;;;;;;;;;5047250;28;20025;-59
2022/08/21 03:03:14;;;;;;;7.83;6.60;;;;;;;;;;5045027;28;20074;-59
2022/08/21 03:05:40;;;;;;;8.73;5.47;;;;;;;;;;5053350;28;20021;-59
2022/08/21 03:08:09;;;;;;;11.77;5.68;;;;;;;;;;5053364;28;20071;-57
2022/08/21 03:10:36;;;;;;;11.93;5.93;;;;;;;;;;5053111;28;20394;-59
2022/08/21 03:13:03;;;;;;;7.65;5.50;;;;;;;;;;5053024;28;20498;-58
2022/08/21 03:15:29;;;;;;;6.22;5.40;;;;;;;;;;5052827;28;20029;-57
2022/08/21 03:17:56;;;;;;;6.20;5.60;;;;;;;;;;5053064;28;20547;-59
2022/08/21 03:20:23;;;;;;;7.65;6.85;;;;;;;;;;5052393;28;20498;-58
2022/08/21 03:22:50;;;;;;;9.00;6.50;;;;;;;;;;5051788;28;20025;-57
2022/08/21 03:25:17;;;;;;;7.47;6.18;;;;;;;;;;5052798;28;20040;-59
2022/08/21 03:27:43;;;;;;;10.70;6.22;;;;;;;;;;5051103;28;20475;-58
2022/08/21 03:30:10;;;;;;;8.10;6.70;;;;;;;;;;5051562;28;20029;-60
2022/08/21 03:32:36;;;;;;;8.60;6.43;;;;;;;;;;5052136;28;20395;-56
2022/08/21 03:35:03;;;;;;;8.50;6.70;;;;;;;;;;5044908;28;20033;-59
2022/08/21 03:37:29;;;;;;;;;;;;;;;;;;5038530;28;20025;-58
2022/08/21 03:39:55;;;;;;;10.30;6.32;;;;;;;;;;5045786;28;20306;-58
2022/08/21 03:42:21;;;;;;;8.43;6.55;;;;;;;;;;5039942;28;20033;-58
2022/08/21 03:44:47;;;;;;;9.07;6.60;;;;;;;;;;5051524;28;20541;-60
2022/08/21 03:47:13;;;;;;;8.77;6.07;;;;;;;;;;5052721;28;20025;-59
2022/08/21 03:49:40;;;;;;;11.43;7.37;;;;;;;;;;5050350;28;20021;-58
2022/08/21 03:52:06;;;;;;;8.57;6.70;;;;;;;;;;5051283;28;20752;-59
2022/08/21 03:54:33;;;;;;;7.00;6.18;;;;;;;;;;5051598;28;20043;-59
2022/08/21 03:56:59;;;;;;;6.63;5.63;;;;;;;;;;5051689;28;20029;-59
2022/08/21 03:59:25;;;;;;;9.95;6.72;;;;;;;;;;5051635;28;20029;-58
2022/08/21 04:01:52;;;;;;;7.00;6.30;;;;;;;;;;5051851;28;20585;-59
2022/08/21 04:04:18;;;;;;;9.40;6.93;;;;;;;;;;5051586;28;20029;-60
2022/08/21 04:06:44;;;;;;;8.57;7.50;;;;;;;;;;5051527;28;20111;-59
2022/08/21 04:09:10;;;;;;;8.63;7.60;;;;;;;;;;5052072;28;20033;-56
2022/08/21 04:11:36;;;;;;;10.02;7.28;;;;;;;;;;5051057;28;20029;-59
2022/08/21 04:14:03;;;;;;;11.97;8.13;;;;;;;;;;5050637;28;20025;-59
2022/08/21 04:16:29;;;;;;;8.10;7.30;;;;;;;;;;5050137;28;20275;-58
2022/08/21 04:18:55;;;;;;;10.33;7.57;;;;;;;;;;5051089;28;20403;-58
2022/08/21 04:21:21;;;;;;;7.97;7.27;;;;;;;;;;5050952;28;20037;-61
2022/08/21 04:23:47;;;;;;;9.75;7.40;;;;;;;;;;5051472;28;20633;-59
2022/08/21 04:26:13;;;;;;;8.07;6.97;;;;;;;;;;5050872;28;20074;-59
2022/08/21 04:28:39;;;;;;;10.60;8.05;;;;;;;;;;5051364;28;20028;-58
2022/08/21 04:31:05;;;;;;;12.35;7.45;;;;;;;;;;5051126;28;20091;-59
2022/08/21 04:33:31;;;;;;;10.63;8.10;;;;;;;;;;5051994;28;20029;-58
2022/08/21 04:35:57;;;;;;;8.17;7.33;;;;;;;;;;5074856;22;20036;-62
2022/08/21 04:38:23;;;;;;;7.75;6.97;;;;;;;;;;5047125;28;20033;-60
2022/08/21 04:40:50;;;;;;;11.85;7.40;;;;;;;;;;5046478;28;20037;-59
2022/08/21 04:43:16;;;;;;;9.18;7.63;;;;;;;;;;5051321;28;20021;-58
2022/08/21 04:45:44;;;;;;;8.82;7.20;;;;;;;;;;5050730;28;20494;-59
2022/08/21 04:48:11;;;;;;;7.85;7.15;;;;;;;;;;5050798;28;20228;-60
2022/08/21 04:50:38;;;;;;;;;;;;;;;;;;5052220;28;20118;-59
2022/08/21 04:53:09;;;;;;;8.50;7.15;;;;;;;;;;5050327;28;20002;-59
2022/08/21 04:55:35;;;;;;;8.20;7.15;;;;;;;;;;5035951;28;20029;-59
2022/08/21 04:58:01;;;;;;;7.90;7.10;;;;;;;;;;5046454;28;20028;-60
2022/08/21 05:00:27;;;;;;;12.98;8.98;;;;;;;;;;5042891;28;20064;-59
2022/08/21 05:02:56;;;;;;;13.05;9.45;;;;;;;;;;5048053;28;20044;-60
2022/08/21 05:05:23;;;;;;;11.15;9.00;;;;;;;;;;5040886;28;20032;-61
2022/08/21 05:07:49;;;;;;;12.82;9.00;;;;;;;;;;5033117;28;20385;-58
2022/08/21 05:10:15;;;;;;;10.65;9.57;;;;;;;;;;5047091;28;20028;-59
2022/08/21 05:12:43;;;;;;;11.27;9.27;;;;;;;;;;5051062;28;20494;-61
2022/08/21 05:15:09;;;;;;;10.73;9.63;;;;;;;;;;5050234;28;20035;-61
2022/08/21 05:17:35;;;;;;;22.05;10.60;;;;;;;;;;5051246;28;20036;-59
2022/08/21 05:20:01;;;;;;;12.43;9.45;;;;;;;;;;5041405;28;20036;-59
2022/08/21 05:22:27;;;;;;;13.93;9.60;;;;;;;;;;5031680;28;20035;-60
2022/08/21 05:24:53;;;;;;;9.57;8.63;;;;;;;;;;5046481;28;20104;-57
2022/08/21 05:27:19;;;;;;;11.93;9.80;;;;;;;;;;5051189;28;20045;-59
2022/08/21 05:29:46;;;;;;;11.70;9.53;;;;;;;;;;5045779;28;20025;-60
2022/08/21 05:32:13;;;;;;;12.05;9.80;;;;;;;;;;5040543;28;20275;-57
2022/08/21 05:34:39;;;;;;;14.82;10.57;;;;;;;;;;5051516;28;20406;-59
2022/08/21 05:37:05;;;;;;;12.03;10.83;;;;;;;;;;5050945;28;20035;-60
2022/08/21 05:39:31;;;;;;;12.15;9.70;;;;;;;;;;5036566;28;20123;-60
2022/08/21 05:41:57;;;;;;;10.55;9.55;;;;;;;;;;5030408;28;20037;-60
2022/08/21 05:44:23;;;;;;;12.03;10.80;;;;;;;;;;5031166;28;20435;-59
2022/08/21 05:46:49;;;;;;;11.90;10.65;;;;;;;;;;5031093;28;20037;-59
2022/08/21 05:49:15;;;;;;;12.60;11.17;;;;;;;;;;5032576;28;20148;-59
2022/08/21 05:51:42;;;;;;;14.50;11.35;;;;;;;;;;5031256;28;20299;-61
2022/08/21 05:54:08;;;;;;;12.25;11.00;;;;;;;;;;5033748;28;20171;-59
2022/08/21 05:56:34;;;;;;;19.33;13.40;;;;;;;;;;5043308;28;20033;-56
2022/08/21 05:59:00;;;;;;;20.17;12.83;;;;;;;;;;5050468;28;20021;-53
2022/08/21 06:01:27;;;;;;;13.25;11.75;;;;;;;;;;5047461;28;20029;-54
2022/08/21 06:03:53;;;;;;;12.90;11.25;;;;;;;;;;5036350;28;20404;-57
2022/08/21 06:06:19;;;;;;;15.93;11.77;;;;;;;;;;5039221;28;20021;-57
2022/08/21 06:08:45;;;;;;;14.83;10.43;;;;;;;;;;5041803;28;20021;-56
2022/08/21 06:11:11;;;;;;;14.63;10.77;;;;;;;;;;5043828;28;20483;-55
2022/08/21 06:13:38;;;;;;;12.77;9.95;;;;;;;;;;5054209;28;20492;-57
2022/08/21 06:16:04;;;;;;;;;;;;;;;;;;5048008;28;20060;-56
2022/08/21 06:18:30;;;;;;;10.77;8.95;;;;;;;;;;5019011;28;20371;-54
2022/08/21 06:20:56;;;;;;;10.97;9.83;;;;;;;;;;5033927;28;20025;-56
2022/08/21 06:23:22;;;;;;;17.83;7.95;;;;;;;;;;5034491;28;20112;-58
2022/08/21 06:25:49;;;;;;;9.63;6.63;;;;;;;;;;5027166;28;20152;-56
2022/08/21 06:28:15;;;;;;;8.00;7.10;;;;;;;;;;5045493;28;20371;-57
2022/08/21 06:30:41;;;;;;;9.80;6.83;;;;;;;;;;5034336;28;20472;-57
2022/08/21 06:33:07;;;;;;;8.57;6.83;;;;;;;;;;5034969;28;20025;-53
2022/08/21 06:35:34;;;;;;;8.88;7.97;;;;;;;;;;5035416;28;20594;-50
2022/08/21 06:38:00;;;;;;;7.35;6.32;;;;;;;;;;5032182;28;20045;-49
2022/08/21 06:40:27;;;;;;;8.07;6.47;;;;;;;;;;5033486;28;20034;-49
2022/08/21 06:42:53;;;;;;;;;;;;;;;;;;5025151;28;20119;-49
2022/08/21 06:45:19;;;;;;;8.18;6.22;;;;;;;;;;5044791;28;19952;-49
2022/08/21 06:47:45;;;;;;;8.10;5.90;;;;;;;;;;5037436;28;20022;-50
2022/08/21 06:50:12;;;;;;;7.73;5.60;;;;;;;;;;5040056;28;20036;-49
2022/08/21 06:52:38;;;;;;;;;;;;;;;;;;5036842;28;20060;-49
2022/08/21 06:55:08;;;;;;;6.07;5.47;;;;;;;;;;5035738;28;19952;-49
2022/08/21 06:57:34;;;;;;;6.45;5.07;;;;;;;;;;5034351;28;20503;-52
2022/08/21 07:00:00;;;;;;;6.03;4.03;;;;;;;;;;5033495;28;20060;-49
2022/08/21 07:02:26;;;;;;;10.50;4.37;;;;;;;;;;5032583;28;20363;-48
2022/08/21 07:04:52;;;;;;;4.43;3.83;;;;;;;;;;5017440;28;20036;-45
2022/08/21 07:07:18;;;;;;;5.50;3.90;;;;;;;;;;5034620;28;20492;-45
2022/08/21 07:09:44;;;;;;;8.17;4.30;;;;;;;;;;5042978;28;20049;-45
2022/08/21 07:12:10;;;;;;;4.77;3.93;;;;;;;;;;5030603;28;20275;-45
2022/08/21 07:14:36;;;;;;;4.27;3.07;;;;;;;;;;5030530;28;20087;-45
2022/08/21 07:17:03;;;;;;;5.60;3.20;;;;;;;;;;5033289;28;20025;-46
2022/08/21 07:19:29;;;;;;;5.03;3.78;;;;;;;;;;5032808;28;20032;-50
2022/08/21 07:21:58;;;;;;;5.57;3.50;;;;;;;;;;5031113;28;20442;-50
2022/08/21 07:24:25;;;;;;;3.55;3.25;;;;;;;;;;5031731;28;20029;-53
2022/08/21 07:26:51;;;;;;;6.95;3.20;;;;;;;;;;5028465;28;20029;-52
2022/08/21 07:29:18;;;;;;;5.75;3.03;;;;;;;;;;5018715;28;20054;-50
2022/08/21 07:31:44;;;;;;;;;;;;;;;;;;5018876;28;20097;-50
2022/08/21 07:34:10;;;;;;;5.38;4.05;;;;;;;;;;5031843;28;20402;-51
2022/08/21 07:36:36;;;;;;;3.73;3.03;;;;;;;;;;5030658;28;20079;-50
2022/08/21 07:39:02;;;;;;;6.57;3.07;;;;;;;;;;5033138;28;20491;-50
2022/08/21 07:41:29;;;;;;;4.23;3.33;;;;;;;;;;5029512;28;20726;-50
2022/08/21 07:43:59;;;;;;;4.53;3.00;;;;;;;;;;5028887;28;20030;-57
2022/08/21 07:46:26;;;;;;;6.30;3.50;;;;;;;;;;5022904;28;20045;-60
2022/08/21 07:48:52;;;;;;;;;;;;;;;;;;5039418;28;20056;-60
2022/08/21 07:51:19;;;;;;;3.28;2.78;;;;;;;;;;5032043;28;19909;-60
2022/08/21 07:53:52;;;;;;;4.57;2.47;;;;;;;;;;5037839;28;20533;-59
2022/08/21 07:56:18;;;;;;;6.45;1.95;;;;;;;;;;5032144;28;20026;-61
2022/08/21 07:58:44;;;;;;;4.33;2.13;;;;;;;;;;5028066;28;20418;-61
2022/08/21 08:01:10;;;;;;;1.50;1.27;;;;;;;;;;5031667;28;20351;-60
2022/08/21 08:03:36;;;;;;;2.75;1.00;;;;;;;;;;5031530;28;20060;-58
2022/08/21 08:06:04;;;;;;;1.38;1.00;;;;;;;;;;5035389;28;20415;-59
2022/08/21 08:08:30;;;;;;;1.13;1.02;;;;;;;;;;5024593;28;20018;-59
2022/08/21 08:10:57;;;;;;;0.98;0.70;;;;;;;;;;5018103;28;20026;-59
2022/08/21 08:13:23;;;;;;;1.02;0.82;;;;;;;;;;5037192;28;20018;-58
2022/08/21 08:15:49;;;;;;;1.70;0.73;;;;;;;;;;5031946;28;20033;-58
2022/08/21 08:18:15;;;;;;;5.90;1.23;;;;;;;;;;5025305;28;20030;-58
2022/08/21 08:20:41;;;;;;;2.10;1.00;;;;;;;;;;5032362;28;20030;-57
2022/08/21 08:23:10;;;;;;;1.88;0.80;;;;;;;;;;5032210;28;20330;-55
2022/08/21 08:25:36;;;;;;;1.67;0.85;;;;;;;;;;5029851;28;20029;-59
2022/08/21 08:28:02;;;;;;;3.37;1.57;;;;;;;;;;5031465;28;20056;-55
2022/08/21 08:30:28;;;;;;;1.40;0.73;;;;;;;;;;5031611;28;20280;-59
2022/08/21 08:32:54;;;;;;;4.22;0.82;;;;;;;;;;5031983;28;20017;-61
2022/08/21 08:35:20;;;;;;;1.38;0.80;;;;;;;;;;5031923;28;20040;-61
2022/08/21 08:37:46;;;;;;;2.03;0.93;;;;;;;;;;5031372;28;20069;-61
2022/08/21 08:40:24;;;;;;;2.22;0.90;;;;;;;;;;5031845;28;20033;-60
2022/08/21 08:42:50;;;;;;;;;;;;;;;;;;5032239;28;20641;-59
2022/08/21 08:45:18;;;;;;;2.53;1.02;;;;;;;;;;5030456;28;20351;-58
2022/08/21 08:47:49;;;;;;;4.18;1.20;;;;;;;;;;5031604;28;20029;-58
2022/08/21 08:50:20;;;;;;;1.73;1.05;;;;;;;;;;5031408;28;20075;-57
2022/08/21 08:53:06;;;;;;;1.50;1.13;;;;;;;;;;5031525;28;20036;-56
2022/08/21 08:55:37;;;;;;;1.35;1.10;;;;;;;;;;5031616;28;20040;-60
2022/08/21 08:58:03;;;;;;;3.88;0.93;;;;;;;;;;5031268;28;20034;-58
2022/08/21 09:00:30;;;;;;;;;;;;;;;;;;5018815;28;20025;-58
2022/08/21 09:02:59;;;;;;;4.78;1.38;;;;;;;;;;5022493;28;19909;-55
2022/08/21 09:05:25;;;;;;;4.65;0.77;;;;;;;;;;5031273;28;20112;-56
2022/08/21 09:07:51;;;;;;;1.27;1.23;;;;;;;;;;5031499;28;20018;-61
2022/08/21 09:10:20;;;;;;;1.73;0.70;;;;;;;;;;5030895;28;20033;-59
2022/08/21 09:12:57;;;;;;;2.08;0.90;;;;;;;;;;5031185;28;20022;-60
2022/08/21 09:15:23;;;;;;;0.80;0.77;;;;;;;;;;5031598;28;20117;-58
2022/08/21 09:17:49;;;;;;;1.33;0.77;;;;;;;;;;5031238;28;20056;-59
2022/08/21 09:20:19;;;;;;;1.38;0.90;;;;;;;;;;5018913;28;20053;-60
2022/08/21 09:23:06;;;;;;;0.85;0.70;;;;;;;;;;5030021;28;20021;-57
2022/08/21 09:25:34;;;;;;;2.85;0.90;;;;;;;;;;5031191;28;20056;-58
2022/08/21 09:28:00;;;;;;;2.20;0.70;;;;;;;;;;5031123;28;20021;-54
2022/08/21 09:30:28;;;;;;;1.52;1.17;;;;;;;;;;5031330;28;20033;-59
2022/08/21 09:32:54;;;;;;;2.08;0.80;;;;;;;;;;5031028;28;20022;-59
2022/08/21 09:35:22;;;;;;;0.60;0.60;;;;;;;;;;5033950;28;20037;-61
2022/08/21 09:37:51;;;;;;;2.05;0.73;;;;;;;;;;5034856;28;20033;-58
2022/08/21 09:40:35;;;;;;;0.80;0.70;;;;;;;;;;5034764;28;20400;-59
2022/08/21 09:43:03;;;;;;;1.40;0.68;;;;;;;;;;5035066;28;20079;-60
2022/08/21 09:45:30;;;;;;;3.20;0.93;;;;;;;;;;5034860;28;20045;-59
2022/08/21 09:47:56;;;;;;;1.70;0.90;;;;;;;;;;5034531;28;20453;-60
2022/08/21 09:50:23;;;;;;;0.70;0.63;;;;;;;;;;5022301;28;20034;-58
2022/08/21 09:52:58;;;;;;;3.28;0.95;;;;;;;;;;5033802;28;20010;-59
2022/08/21 09:58:14;;;;;;;0.80;0.70;;;;;;;;;;5034695;28;20040;-59
2022/08/21 10:00:43;;;;;;;3.50;0.90;;;;;;;;;;5034530;28;20025;-58
2022/08/21 10:03:18;;;;;;;2.97;0.82;;;;;;;;;;5034873;28;20475;-59
2022/08/21 10:06:12;;;;;;;3.63;0.90;;;;;;;;;;5034474;28;20400;-61
2022/08/21 10:08:40;;;;;;;2.63;0.90;;;;;;;;;;5030353;28;20044;-59
2022/08/21 10:11:08;;;;;;;1.27;1.10;;;;;;;;;;5033943;28;20021;-59
2022/08/21 10:13:34;;;;;;;1.17;1.00;;;;;;;;;;5033283;28;20021;-59
2022/08/21 10:16:05;;;;;;;5.63;0.88;;;;;;;;;;5034532;28;20090;-61
2022/08/21 10:18:38;;;;;;;1.35;0.88;;;;;;;;;;5034349;28;20021;-59
2022/08/21 10:21:16;;;;;;;2.17;1.17;;;;;;;;;;5034267;28;20101;-57
2022/08/21 10:23:57;;;;;;;2.35;0.98;;;;;;;;;;5034431;28;20053;-58
2022/08/21 10:26:26;;;;;;;2.97;1.10;;;;;;;;;;5031054;28;20029;-59
2022/08/21 10:29:01;;;;;;;3.75;0.93;;;;;;;;;;5034065;28;20155;-58
2022/08/21 10:31:36;;;;;;;1.80;0.90;;;;;;;;;;5032804;28;20040;-59
2022/08/21 10:34:08;;;;;;;3.40;1.17;;;;;;;;;;5033899;28;20518;-58
2022/08/21 10:39:20;;;;;;;1.13;0.80;;;;;;;;;;5031748;28;20518;-56
2022/08/21 10:41:55;;;;;;;2.15;1.35;;;;;;;;;;5035486;28;20017;-57
2022/08/21 10:44:30;;;;;;;0.93;0.93;;;;;;;;;;5038583;28;20049;-57
2022/08/21 10:47:05;;;;;;;3.58;1.05;;;;;;;;;;5037734;28;20075;-57
2022/08/21 10:49:31;;;;;;;2.25;1.00;;;;;;;;;;5033987;28;20041;-56
2022/08/21 10:52:18;;;;;;;2.90;1.45;;;;;;;;;;5033958;28;20453;-57
2022/08/21 10:54:57;;;;;;;2.20;0.80;;;;;;;;;;5034367;28;20430;-57
2022/08/21 10:57:43;;;;;;;1.52;0.82;;;;;;;;;;5033995;28;20033;-56
2022/08/21 11:00:29;;;;;;;0.80;0.80;;;;;;;;;;4993473;28;20495;-57
2022/08/21 11:03:01;;;;;;;0.70;0.70;;;;;;;;;;5020459;28;20037;-57
2022/08/21 11:05:33;;;;;;;0.70;0.70;;;;;;;;;;5033776;28;20471;-56
2022/08/21 11:08:05;;;;;;;1.50;0.80;;;;;;;;;;5033784;28;20140;-55
2022/08/21 11:10:36;;;;;;;1.85;0.70;;;;;;;;;;5033775;28;20079;-57
2022/08/21 11:13:09;;;;;;;2.88;0.70;;;;;;;;;;5033900;28;20455;-56
2022/08/21 11:15:41;;;;;;;0.88;0.85;;;;;;;;;;5033480;28;20049;-57
2022/08/21 11:18:16;;;;;;;2.17;1.00;;;;;;;;;;5033666;28;20112;-60
2022/08/21 11:20:51;;;;;;;9.05;0.80;;;;;;;;;;5033657;28;20029;-61
2022/08/21 11:23:31;;;;;;;1.05;0.90;;;;;;;;;;5034204;28;20101;-57
2022/08/21 11:26:01;;;;;;;0.80;0.80;;;;;;;;;;5034396;28;20079;-57
2022/08/21 11:28:31;;;;;;;1.85;0.82;;;;;;;;;;5034392;28;20467;-57
2022/08/21 11:30:59;;;;;;;0.70;0.70;;;;;;;;;;5033450;28;20026;-58
2022/08/21 11:33:41;;;;;;;0.90;0.50;;;;;;;;;;5033441;28;20557;-61
2022/08/21 11:36:16;;;;;;;2.03;0.80;;;;;;;;;;5021492;28;20168;-59
2022/08/21 11:38:44;;;;;;;1.40;0.80;;;;;;;;;;5020719;28;20033;-59
2022/08/21 11:41:30;;;;;;;0.70;0.70;;;;;;;;;;5023684;28;20407;-59
2022/08/21 11:44:09;;;;;;;2.05;0.73;;;;;;;;;;5022522;28;20037;-60
2022/08/21 11:46:44;;;;;;;0.75;0.60;;;;;;;;;;5013061;28;20110;-59
2022/08/21 11:49:21;;;;;;;0.85;0.85;;;;;;;;;;5025249;28;20499;-59
2022/08/21 11:51:58;;;;;;;0.50;0.50;;;;;;;;;;5020826;28;20385;-59
2022/08/21 11:54:24;;;;;;;;;;;;;;;;;;5016055;28;20029;-59
2022/08/21 11:57:00;;;;;;;0.75;0.70;;;;;;;;;;5023516;28;19913;-59
2022/08/21 11:59:33;;;;;;;181.90;148.60;;;;;;;;;;5021729;28;20540;-55
2022/08/21 12:01:59;;;;;;;3.50;3.20;;;;;;;;;;5012746;28;20026;-58
2022/08/21 12:04:28;;;;;;;1.50;1.40;;;;;;;;;;5012537;28;20049;-58
2022/08/21 12:06:54;;;;;;;1.02;0.93;;;;;;;;;;5012469;28;20075;-62
2022/08/21 12:09:23;;;;;;;0.73;0.73;;;;;;;;;;5014626;28;20549;-61
2022/08/21 12:12:00;;;;;;;0.75;0.73;;;;;;;;;;5031931;28;20443;-60
2022/08/21 12:14:36;;;;;;;2.28;1.10;;;;;;;;;;5029714;28;20013;-60
2022/08/21 12:17:05;;;;;;;0.80;0.80;;;;;;;;;;5032250;28;20399;-61
2022/08/21 12:19:32;;;;;;;0.65;0.65;;;;;;;;;;5031912;28;20028;-59
2022/08/21 12:22:00;;;;;;;0.75;0.75;;;;;;;;;;5032254;28;20029;-60
2022/08/21 12:24:41;;;;;;;1.75;0.75;;;;;;;;;;5031806;28;20026;-59
2022/08/21 12:27:13;;;;;;;0.60;0.60;;;;;;;;;;5031771;28;20052;-61
2022/08/21 12:29:46;;;;;;;1.15;1.02;;;;;;;;;;5032140;28;20030;-61
2022/08/21 12:32:14;;;;;;;0.80;0.77;;;;;;;;;;5031218;28;20025;-61
2022/08/21 12:34:56;;;;;;;2.08;0.70;;;;;;;;;;5026988;28;20034;-61
2022/08/21 12:37:22;;;;;;;0.68;0.68;;;;;;;;;;5020851;28;20544;-60
2022/08/21 12:39:50;;;;;;;0.93;0.93;;;;;;;;;;5017775;28;20029;-61
2022/08/21 12:42:16;;;;;;;1.10;0.93;;;;;;;;;;5031895;28;20479;-60
2022/08/21 12:45:02;;;;;;;1.15;0.90;;;;;;;;;;5031583;28;20501;-60
2022/08/21 12:47:33;;;;;;;3.65;0.90;;;;;;;;;;5031376;28;20083;-60
2022/08/21 12:50:15;;;;;;;1.50;0.88;;;;;;;;;;5031762;28;20483;-60
2022/08/21 12:52:45;;;;;;;0.70;0.70;;;;;;;;;;5031364;28;20104;-60
2022/08/21 12:55:16;;;;;;;4.25;0.90;;;;;;;;;;5031533;28;20053;-59
2022/08/21 12:57:42;;;;;;;1.60;0.80;;;;;;;;;;5031556;28;20032;-59
2022/08/21 13:00:14;;;;;;;1.63;0.80;;;;;;;;;;5013168;28;20034;-60
2022/08/21 13:02:48;;;;;;;0.90;0.90;;;;;;;;;;5010565;28;20130;-60
2022/08/21 13:05:16;;;;;;;0.95;0.77;;;;;;;;;;5010746;28;20480;-59
2022/08/21 13:07:47;;;;;;;0.70;0.70;;;;;;;;;;5027305;28;20028;-60
2022/08/21 13:10:22;;;;;;;0.90;0.90;;;;;;;;;;5029311;28;20517;-59
2022/08/21 13:12:49;;;;;;;3.00;0.93;;;;;;;;;;5031349;28;20032;-61
2022/08/21 13:15:14;;;;;;;;;;;;;;;;;;5031928;28;20026;-59
2022/08/21 13:17:42;;;;;;;1.55;0.85;;;;;;;;;;5031163;28;19909;-61
2022/08/21 13:20:18;;;;;;;0.70;0.70;;;;;;;;;;5031192;28;20132;-63
2022/08/21 13:22:45;;;;;;;0.80;0.80;;;;;;;;;;5012559;28;20025;-61
2022/08/21 13:25:13;;;;;;;0.68;0.68;;;31.00;51.60;;;;;;5023263;28;20029;-61
2022/08/21 13:27:40;;;;;;;0.73;0.73;;;39.30;28.20;;;;;;5018847;28;20491;-61
2022/08/21 13:30:24;;;;;;;1.77;0.93;;;39.60;29.00;;;;;;5031091;28;20071;-62
2022/08/21 13:32:57;;;;;;;0.75;0.60;;;40.40;28.20;;;;;;5020873;28;20550;-62
2022/08/21 13:35:49;;;;;;;1.00;0.90;;;40.20;27.20;;;;;;5030434;28;20029;-59
2022/08/21 13:38:16;;;;;;;0.70;0.70;;;39.80;26.70;;;;;;4993145;28;20049;-57
2022/08/21 13:40:56;;;;;;;0.73;0.70;;;40.30;28.90;;;;;;5023542;28;20026;-58
2022/08/21 13:43:28;;;;;;;0.73;0.70;;;42.10;27.50;;;;;;5013328;28;20038;-60
2022/08/21 13:45:55;;;;;;;1.38;0.85;;;43.50;26.90;;;;;;5025782;28;20033;-60
2022/08/21 13:48:26;;;;;;;0.70;0.70;;;;;;;;;;5023179;28;20050;-60
2022/08/21 13:50:52;;;;;;;3.75;2.25;;;;;;;;;;5030697;28;20132;-60
2022/08/21 13:53:23;;;;;;;1.30;1.20;;;;;;;;;;5030623;28;20132;-59
2022/08/21 13:55:49;;;;;;;1.92;1.00;;;;;;;;;;5015844;28;20040;-59
2022/08/21 13:58:45;;;;;;;0.80;0.80;;;44.60;26.80;;;;;;5029753;28;20034;-57
2022/08/21 14:01:27;;;;;;;0.70;0.70;;;47.10;22.80;;;;;;5030517;28;20025;-59
2022/08/21 14:03:57;;;;;;;0.80;0.80;;;45.70;24.00;;;;;;5031189;28;20029;-59
2022/08/21 14:06:27;;;;;;;1.70;1.00;;;45.90;24.30;;;;;;5029875;28;20021;-58
2022/08/21 14:08:59;;;;;;;1.17;0.70;;;45.10;23.60;;;;;;5029572;28;20032;-57
2022/08/21 14:11:32;;;;;;;0.80;0.80;;;45.80;23.70;;;;;;5019996;28;20044;-55
2022/08/21 14:14:01;;;;;;;0.80;0.80;;;43.70;23.90;;;;;;5029873;28;20033;-58
2022/08/21 14:16:41;;;;;;;0.68;0.68;;;44.00;24.60;;;;;;5029992;28;20024;-59
2022/08/21 14:19:19;;;;;;;1.33;0.80;;;44.30;24.80;;;;;;5035652;28;20476;-58
2022/08/21 14:21:46;;;;;;;1.52;0.80;;;45.10;24.30;;;;;;5049914;28;20024;-57
2022/08/21 14:24:13;;;;;;;2.22;0.77;;;;;;;;;;5021259;28;20047;-57
2022/08/21 14:26:49;;;;;;;1.00;1.00;;;;;;;;;;5015004;28;20052;-59
2022/08/21 14:29:17;;;;;;;1.05;0.98;;;48.50;37.90;;;;;;5030066;28;20029;-59
2022/08/21 14:31:49;;;;;;;0.75;0.75;;;48.40;23.20;;;;;;5021757;28;20448;-60
2022/08/21 14:34:16;;;;;;;0.70;0.70;;;47.90;22.80;;;;;;5017943;28;20536;-57
2022/08/21 14:36:42;;;;;;;0.80;0.80;;;48.60;35.40;;;;;;5033513;28;20112;-58
2022/08/21 14:39:09;;;;;;;0.80;0.80;;;;;;;;;;5025443;28;20029;-56
2022/08/21 14:41:36;;;;;;;2.22;0.90;;;48.70;22.70;;;;;;5033731;28;20044;-58
2022/08/21 14:44:02;;;;;;;0.80;0.80;;;48.20;22.90;;;;;;5033936;28;20108;-58
2022/08/21 14:46:30;;;;;;;1.10;1.10;;;46.50;22.90;;;;;;5034093;28;20087;-59
2022/08/21 14:48:56;;;;;;;2.00;1.48;;;47.40;22.90;;;;;;5026110;28;20018;-55